createdAt,value
2018-08-27T00:00:42.625Z,15.67
2018-08-27T00:01:42.667Z,15.62
2018-08-27T00:02:42.727Z,15.81
2018-08-27T00:03:43.338Z,15.67
2018-08-27T00:04:42.855Z,15.48
2018-08-27T00:05:42.916Z,15.48
2018-08-27T00:06:42.978Z,15.46
2018-08-27T00:07:43.041Z,15.33
2018-08-27T00:08:43.103Z,15.13
2018-08-27T00:09:43.165Z,15.09
2018-08-27T00:10:43.230Z,14.98
2018-08-27T00:11:43.289Z,15.11
2018-08-27T00:12:43.351Z,15.38
2018-08-27T00:13:43.414Z,15.28
2018-08-27T00:14:43.476Z,15.09
2018-08-27T00:15:43.538Z,15.09
2018-08-27T00:16:43.600Z,15.20
2018-08-27T00:17:43.663Z,15.12
2018-08-27T00:18:43.725Z,14.90
2018-08-27T00:19:43.786Z,14.78
2018-08-27T00:20:43.848Z,14.69
2018-08-27T00:21:43.910Z,14.75
2018-08-27T00:22:43.972Z,14.61
2018-08-27T00:23:44.034Z,14.63
2018-08-27T00:24:44.095Z,14.69
2018-08-27T00:25:44.158Z,14.93
2018-08-27T00:26:44.220Z,14.86
2018-08-27T00:27:44.284Z,14.87
2018-08-27T00:28:44.343Z,14.98
2018-08-27T00:29:44.405Z,14.87
2018-08-27T00:30:44.468Z,14.75
2018-08-27T00:31:44.529Z,14.83
2018-08-27T00:32:44.591Z,14.82
2018-08-27T00:33:44.652Z,14.91
2018-08-27T00:34:44.715Z,14.91
2018-08-27T00:35:44.776Z,14.87
2018-08-27T00:36:44.838Z,14.83
2018-08-27T00:37:44.900Z,14.83
2018-08-27T00:38:44.963Z,14.78
2018-08-27T00:39:45.023Z,14.79
2018-08-27T00:40:45.085Z,14.69
2018-08-27T00:41:45.145Z,14.72
2018-08-27T00:42:45.209Z,14.72
2018-08-27T00:43:45.303Z,14.71
2018-08-27T00:44:45.332Z,14.91
2018-08-27T00:45:45.394Z,14.87
2018-08-27T00:46:45.459Z,14.91
2018-08-27T00:47:45.517Z,14.93
2018-08-27T00:48:45.584Z,14.91
2018-08-27T00:49:45.640Z,14.91
2018-08-27T00:50:45.704Z,14.86
2018-08-27T00:51:45.764Z,14.82
2018-08-27T00:52:45.826Z,14.78
2018-08-27T00:53:45.898Z,14.78
2018-08-27T00:54:45.949Z,14.90
2018-08-27T00:55:46.011Z,14.85
2018-08-27T00:56:46.078Z,14.93
2018-08-27T00:57:46.134Z,14.90
2018-08-27T00:58:46.199Z,14.93
2018-08-27T00:59:46.258Z,14.93
2018-08-27T01:00:46.320Z,14.93
2018-08-27T01:01:46.382Z,14.90
2018-08-27T01:02:46.444Z,14.91
2018-08-27T01:03:46.505Z,14.97
2018-08-27T01:04:46.568Z,15.01
2018-08-27T01:05:46.630Z,15.03
2018-08-27T01:06:46.701Z,15.05
2018-08-27T01:07:46.752Z,15.12
2018-08-27T01:08:46.814Z,15.09
2018-08-27T01:09:46.886Z,15.00
2018-08-27T01:10:46.938Z,15.04
2018-08-27T01:11:46.998Z,15.04
2018-08-27T01:12:47.062Z,15.05
2018-08-27T01:13:47.123Z,15.05
2018-08-27T01:14:47.185Z,15.11
2018-08-27T01:15:47.246Z,15.05
2018-08-27T01:16:47.308Z,15.16
2018-08-27T01:17:47.621Z,15.05
2018-08-27T01:18:47.432Z,15.11
2018-08-27T01:19:47.494Z,15.15
2018-08-27T01:20:47.556Z,15.28
2018-08-27T01:21:47.618Z,15.20
2018-08-27T01:22:47.693Z,15.20
2018-08-27T01:23:47.741Z,15.16
2018-08-27T01:24:47.803Z,15.15
2018-08-27T01:25:47.868Z,15.25
2018-08-27T01:26:47.928Z,15.18
2018-08-27T01:27:47.995Z,15.20
2018-08-27T01:28:48.051Z,15.13
2018-08-27T01:29:48.113Z,15.20
2018-08-27T01:30:48.175Z,15.19
2018-08-27T01:31:48.236Z,15.09
2018-08-27T01:32:48.299Z,15.12
2018-08-27T01:33:48.361Z,15.09
2018-08-27T01:34:48.423Z,15.05
2018-08-27T01:35:48.484Z,15.09
2018-08-27T01:36:48.547Z,15.07
2018-08-27T01:37:48.608Z,15.22
2018-08-27T01:38:48.670Z,15.15
2018-08-27T01:39:48.732Z,15.07
2018-08-27T01:40:48.794Z,15.20
2018-08-27T01:41:48.856Z,15.35
2018-08-27T01:42:48.919Z,15.43
2018-08-27T01:43:48.982Z,15.49
2018-08-27T01:44:49.042Z,15.44
2018-08-27T01:45:49.104Z,15.38
2018-08-27T01:46:49.167Z,15.37
2018-08-27T01:47:49.227Z,15.43
2018-08-27T01:48:49.290Z,15.44
2018-08-27T01:49:49.353Z,15.41
2018-08-27T01:50:49.414Z,15.41
2018-08-27T01:51:49.475Z,15.28
2018-08-27T01:52:49.538Z,15.37
2018-08-27T01:53:49.600Z,15.38
2018-08-27T01:54:49.661Z,15.25
2018-08-27T01:55:49.724Z,15.23
2018-08-27T01:56:49.785Z,15.33
2018-08-27T01:57:49.848Z,15.35
2018-08-27T01:58:49.912Z,15.51
2018-08-27T01:59:49.972Z,15.37
2018-08-27T02:00:50.033Z,15.43
2018-08-27T02:01:50.096Z,15.34
2018-08-27T02:02:50.159Z,15.38
2018-08-27T02:03:50.220Z,15.35
2018-08-27T02:04:50.283Z,15.40
2018-08-27T02:05:50.346Z,15.53
2018-08-27T02:06:50.407Z,15.51
2018-08-27T02:07:50.468Z,15.34
2018-08-27T02:08:50.530Z,15.48
2018-08-27T02:09:50.594Z,15.49
2018-08-27T02:10:50.658Z,15.53
2018-08-27T02:11:50.716Z,15.35
2018-08-27T02:12:50.779Z,15.40
2018-08-27T02:13:50.842Z,15.28
2018-08-27T02:14:50.906Z,15.31
2018-08-27T02:15:50.967Z,15.33
2018-08-27T02:16:51.027Z,15.46
2018-08-27T02:17:51.091Z,15.49
2018-08-27T02:18:51.153Z,15.35
2018-08-27T02:19:51.213Z,15.40
2018-08-27T02:20:51.305Z,15.34
2018-08-27T02:21:51.338Z,15.37
2018-08-27T02:22:51.407Z,15.38
2018-08-27T02:23:51.460Z,15.41
2018-08-27T02:24:51.524Z,15.43
2018-08-27T02:25:51.626Z,15.58
2018-08-27T02:26:51.651Z,15.48
2018-08-27T02:27:51.709Z,15.58
2018-08-27T02:28:51.771Z,15.59
2018-08-27T02:29:51.855Z,15.51
2018-08-27T02:30:51.896Z,15.56
2018-08-27T02:31:51.957Z,15.68
2018-08-27T02:32:52.020Z,15.66
2018-08-27T02:33:52.084Z,15.62
2018-08-27T02:34:52.148Z,15.93
2018-08-27T02:35:52.206Z,16.22
2018-08-27T02:36:52.273Z,16.06
2018-08-27T02:37:52.330Z,16.06
2018-08-27T02:38:52.393Z,16.03
2018-08-27T02:39:52.455Z,15.77
2018-08-27T02:40:52.517Z,16.01
2018-08-27T02:41:52.579Z,16.26
2018-08-27T02:42:52.642Z,15.98
2018-08-27T02:43:52.953Z,16.03
2018-08-27T02:44:52.765Z,15.95
2018-08-27T02:45:52.828Z,15.80
2018-08-27T02:46:52.890Z,15.76
2018-08-27T02:47:52.953Z,15.84
2018-08-27T02:48:53.014Z,15.91
2018-08-27T02:49:53.077Z,15.86
2018-08-27T02:50:53.138Z,16.03
2018-08-27T02:51:53.199Z,16.04
2018-08-27T02:52:53.262Z,16.18
2018-08-27T02:53:53.324Z,15.99
2018-08-27T02:54:53.388Z,16.06
2018-08-27T02:55:53.448Z,15.85
2018-08-27T02:56:53.511Z,15.84
2018-08-27T02:57:53.574Z,15.68
2018-08-27T02:58:53.636Z,15.68
2018-08-27T02:59:53.699Z,15.53
2018-08-27T03:00:53.760Z,15.91
2018-08-27T03:01:53.822Z,16.60
2018-08-27T03:02:53.884Z,16.81
2018-08-27T03:03:53.947Z,17.00
2018-08-27T03:04:54.008Z,17.58
2018-08-27T03:05:54.071Z,17.60
2018-08-27T03:06:54.141Z,17.94
2018-08-27T03:07:54.193Z,17.76
2018-08-27T03:08:54.257Z,17.58
2018-08-27T03:09:54.320Z,17.30
2018-08-27T03:10:54.389Z,17.38
2018-08-27T03:11:54.444Z,17.62
2018-08-27T03:12:54.506Z,17.80
2018-08-27T03:13:54.569Z,17.65
2018-08-27T03:14:54.632Z,17.70
2018-08-27T03:15:54.694Z,17.49
2018-08-27T03:16:54.756Z,17.57
2018-08-27T03:17:54.818Z,17.76
2018-08-27T03:18:54.882Z,18.23
2018-08-27T03:19:54.944Z,18.28
2018-08-27T03:20:55.009Z,18.41
2018-08-27T03:21:55.069Z,18.42
2018-08-27T03:22:55.131Z,18.29
2018-08-27T03:23:55.193Z,18.26
2018-08-27T03:24:55.275Z,18.10
2018-08-27T03:25:55.321Z,18.02
2018-08-27T03:26:55.384Z,17.94
2018-08-27T03:27:55.445Z,17.89
2018-08-27T03:28:55.507Z,17.98
2018-08-27T03:29:55.574Z,17.86
2018-08-27T03:30:55.635Z,17.92
2018-08-27T03:31:55.694Z,17.94
2018-08-27T03:32:55.759Z,17.89
2018-08-27T03:33:55.823Z,17.89
2018-08-27T03:34:55.885Z,17.87
2018-08-27T03:35:55.946Z,17.81
2018-08-27T03:36:56.010Z,17.99
2018-08-27T03:37:56.075Z,17.84
2018-08-27T03:38:56.138Z,17.81
2018-08-27T03:39:56.201Z,17.77
2018-08-27T03:40:56.261Z,17.83
2018-08-27T03:41:56.324Z,17.76
2018-08-27T03:42:56.386Z,17.81
2018-08-27T03:43:56.449Z,17.73
2018-08-27T03:44:56.511Z,17.58
2018-08-27T03:45:56.574Z,17.58
2018-08-27T03:46:56.638Z,17.62
2018-08-27T03:47:56.700Z,17.66
2018-08-27T03:48:56.767Z,17.58
2018-08-27T03:49:56.827Z,17.62
2018-08-27T03:50:56.889Z,17.57
2018-08-27T03:51:56.955Z,17.53
2018-08-27T03:52:57.015Z,17.57
2018-08-27T03:53:57.093Z,17.46
2018-08-27T03:54:57.142Z,17.53
2018-08-27T03:55:57.201Z,17.45
2018-08-27T03:56:57.271Z,17.57
2018-08-27T03:57:57.328Z,17.53
2018-08-27T03:58:57.692Z,17.46
2018-08-27T03:59:57.457Z,17.33
2018-08-27T04:00:57.535Z,17.46
2018-08-27T04:01:57.579Z,17.45
2018-08-27T04:02:57.642Z,17.51
2018-08-27T04:03:57.708Z,17.45
2018-08-27T04:04:57.767Z,17.53
2018-08-27T04:05:57.830Z,17.49
2018-08-27T04:06:57.893Z,17.53
2018-08-27T04:07:57.957Z,17.38
2018-08-27T04:08:58.018Z,17.39
2018-08-27T04:09:58.081Z,17.35
2018-08-27T04:10:58.165Z,17.32
2018-08-27T04:11:58.207Z,17.32
2018-08-27T04:12:58.269Z,17.27
2018-08-27T04:13:58.333Z,17.30
2018-08-27T04:14:58.395Z,17.33
2018-08-27T04:15:58.457Z,17.42
2018-08-27T04:16:58.520Z,17.42
2018-08-27T04:17:58.584Z,17.35
2018-08-27T04:18:58.646Z,17.27
2018-08-27T04:19:58.712Z,17.27
2018-08-27T04:20:58.770Z,17.33
2018-08-27T04:21:58.833Z,17.12
2018-08-27T04:22:58.898Z,17.06
2018-08-27T04:23:58.959Z,17.05
2018-08-27T04:24:59.022Z,17.17
2018-08-27T04:25:59.084Z,17.03
2018-08-27T04:26:59.147Z,16.96
2018-08-27T04:27:59.210Z,17.00
2018-08-27T04:28:59.273Z,16.92
2018-08-27T04:29:59.342Z,16.99
2018-08-27T04:30:59.397Z,16.95
2018-08-27T04:31:59.460Z,16.84
2018-08-27T04:32:59.521Z,16.81
2018-08-27T04:33:59.596Z,16.82
2018-08-27T04:35:00.012Z,16.80
2018-08-27T04:35:59.710Z,16.69
2018-08-27T04:36:59.773Z,16.55
2018-08-27T04:37:59.842Z,16.52
2018-08-27T04:38:59.898Z,16.47
2018-08-27T04:39:59.963Z,16.55
2018-08-27T04:41:00.024Z,16.54
2018-08-27T04:42:00.086Z,16.51
2018-08-27T04:43:00.150Z,16.57
2018-08-27T04:44:00.230Z,16.48
2018-08-27T04:45:00.272Z,16.44
2018-08-27T04:46:00.335Z,16.47
2018-08-27T04:47:00.473Z,16.41
2018-08-27T04:48:00.460Z,16.51
2018-08-27T04:49:00.522Z,16.51
2018-08-27T04:50:00.597Z,16.41
2018-08-27T04:51:00.646Z,16.30
2018-08-27T04:52:00.707Z,16.41
2018-08-27T04:53:00.773Z,16.41
2018-08-27T04:54:00.834Z,16.36
2018-08-27T04:55:01.148Z,16.34
2018-08-27T04:56:00.958Z,16.33
2018-08-27T04:57:01.021Z,16.34
2018-08-27T04:58:01.082Z,16.26
2018-08-27T04:59:01.146Z,16.18
2018-08-27T05:00:01.224Z,16.30
2018-08-27T05:01:01.270Z,16.25
2018-08-27T05:02:01.336Z,16.25
2018-08-27T05:03:01.395Z,16.16
2018-08-27T05:04:01.456Z,16.11
2018-08-27T05:05:01.520Z,16.10
2018-08-27T05:06:01.581Z,16.23
2018-08-27T05:07:01.643Z,16.14
2018-08-27T05:08:01.705Z,16.22
2018-08-27T05:09:01.771Z,16.18
2018-08-27T05:10:01.836Z,16.01
2018-08-27T05:11:02.437Z,15.96
2018-08-27T05:12:01.956Z,15.95
2018-08-27T05:13:02.015Z,15.99
2018-08-27T05:14:02.078Z,16.04
2018-08-27T05:15:02.141Z,15.96
2018-08-27T05:16:02.208Z,15.88
2018-08-27T05:17:02.300Z,15.85
2018-08-27T05:18:02.327Z,15.73
2018-08-27T05:19:02.422Z,15.66
2018-08-27T05:20:02.452Z,15.78
2018-08-27T05:21:02.514Z,15.81
2018-08-27T05:22:02.576Z,15.78
2018-08-27T05:23:02.639Z,15.73
2018-08-27T05:24:03.008Z,15.86
2018-08-27T05:25:02.762Z,15.98
2018-08-27T05:26:02.825Z,15.93
2018-08-27T05:27:02.887Z,15.99
2018-08-27T05:28:02.948Z,15.92
2018-08-27T05:29:03.016Z,15.98
2018-08-27T05:30:03.076Z,15.96
2018-08-27T05:31:03.250Z,15.89
2018-08-27T05:32:03.196Z,15.93
2018-08-27T05:33:03.258Z,15.95
2018-08-27T05:34:03.321Z,15.95
2018-08-27T05:35:03.383Z,15.95
2018-08-27T05:36:03.445Z,15.96
2018-08-27T05:37:03.532Z,16.04
2018-08-27T05:38:03.630Z,16.07
2018-08-27T05:39:03.943Z,15.98
2018-08-27T05:40:03.714Z,15.89
2018-08-27T05:41:03.801Z,15.93
2018-08-27T05:42:03.817Z,16.01
2018-08-27T05:43:03.881Z,16.06
2018-08-27T05:44:03.947Z,16.16
2018-08-27T05:45:04.009Z,15.99
2018-08-27T05:46:04.073Z,16.08
2018-08-27T05:47:04.130Z,16.06
2018-08-27T05:48:04.194Z,16.03
2018-08-27T05:49:04.254Z,16.08
2018-08-27T05:50:04.317Z,16.04
2018-08-27T05:51:04.379Z,16.01
2018-08-27T05:52:04.446Z,16.06
2018-08-27T05:53:04.514Z,15.99
2018-08-27T05:54:04.585Z,16.18
2018-08-27T05:55:04.631Z,16.33
2018-08-27T05:56:04.690Z,16.27
2018-08-27T05:57:04.751Z,16.34
2018-08-27T05:58:04.817Z,16.30
2018-08-27T05:59:04.877Z,16.34
2018-08-27T06:00:04.939Z,16.37
2018-08-27T06:01:05.001Z,16.22
2018-08-27T06:02:05.064Z,16.22
2018-08-27T06:03:05.128Z,16.22
2018-08-27T06:04:05.189Z,16.18
2018-08-27T06:05:05.250Z,16.26
2018-08-27T06:06:05.319Z,16.23
2018-08-27T06:07:05.376Z,16.25
2018-08-27T06:08:05.440Z,16.27
2018-08-27T06:09:05.545Z,16.13
2018-08-27T06:10:05.564Z,16.14
2018-08-27T06:11:05.643Z,16.30
2018-08-27T06:12:05.688Z,16.22
2018-08-27T06:13:05.751Z,16.30
2018-08-27T06:14:05.812Z,16.17
2018-08-27T06:15:05.875Z,16.18
2018-08-27T06:16:05.976Z,16.22
2018-08-27T06:17:06.081Z,16.27
2018-08-27T06:18:06.063Z,16.26
2018-08-27T06:19:06.126Z,16.25
2018-08-27T06:20:06.189Z,16.30
2018-08-27T06:21:06.251Z,16.29
2018-08-27T06:22:06.390Z,16.33
2018-08-27T06:23:06.376Z,16.36
2018-08-27T06:24:06.439Z,16.42
2018-08-27T06:25:06.567Z,16.52
2018-08-27T06:26:06.564Z,16.54
2018-08-27T06:27:06.627Z,16.62
2018-08-27T06:28:06.689Z,16.51
2018-08-27T06:29:06.753Z,16.51
2018-08-27T06:30:06.815Z,16.44
2018-08-27T06:31:06.878Z,16.45
2018-08-27T06:32:06.940Z,16.41
2018-08-27T06:33:07.002Z,16.40
2018-08-27T06:34:07.065Z,16.23
2018-08-27T06:35:07.132Z,16.36
2018-08-27T06:36:07.273Z,16.36
2018-08-27T06:37:07.254Z,16.37
2018-08-27T06:38:07.401Z,16.32
2018-08-27T06:39:07.385Z,16.37
2018-08-27T06:40:07.445Z,16.37
2018-08-27T06:41:07.504Z,16.23
2018-08-27T06:42:07.570Z,16.33
2018-08-27T06:43:07.630Z,16.27
2018-08-27T06:44:07.693Z,16.42
2018-08-27T06:45:07.756Z,16.41
2018-08-27T06:46:07.834Z,16.50
2018-08-27T06:47:07.888Z,16.48
2018-08-27T06:48:07.943Z,16.42
2018-08-27T06:49:08.007Z,16.44
2018-08-27T06:50:08.069Z,16.57
2018-08-27T06:51:08.132Z,16.59
2018-08-27T06:52:08.197Z,16.48
2018-08-27T06:53:08.260Z,16.50
2018-08-27T06:54:08.321Z,16.57
2018-08-27T06:55:08.384Z,16.52
2018-08-27T06:56:08.445Z,16.47
2018-08-27T06:57:08.508Z,16.40
2018-08-27T06:58:08.571Z,16.45
2018-08-27T06:59:08.633Z,16.34
2018-08-27T07:00:09.010Z,16.50
2018-08-27T07:01:12.173Z,16.57
2018-08-27T07:02:08.870Z,16.51
2018-08-27T07:03:09.235Z,16.45
2018-08-27T07:04:08.977Z,16.52
2018-08-27T07:05:09.008Z,16.44
2018-08-27T07:06:09.072Z,16.44
2018-08-27T07:07:09.135Z,16.48
2018-08-27T07:08:09.196Z,16.44
2018-08-27T07:09:09.261Z,16.47
2018-08-27T07:10:09.325Z,16.50
2018-08-27T07:11:09.407Z,16.47
2018-08-27T07:12:09.467Z,16.42
2018-08-27T07:13:09.530Z,16.37
2018-08-27T07:14:09.592Z,16.41
2018-08-27T07:15:09.656Z,16.42
2018-08-27T07:16:09.699Z,16.55
2018-08-27T07:17:09.771Z,16.32
2018-08-27T07:18:09.825Z,16.29
2018-08-27T07:19:09.888Z,16.27
2018-08-27T07:20:09.998Z,16.34
2018-08-27T07:21:10.322Z,16.33
2018-08-27T07:22:10.077Z,16.27
2018-08-27T07:23:10.142Z,16.37
2018-08-27T07:24:10.205Z,16.42
2018-08-27T07:25:10.265Z,16.34
2018-08-27T07:26:10.807Z,16.54
2018-08-27T07:27:10.542Z,16.30
2018-08-27T07:28:10.454Z,16.37
2018-08-27T07:29:10.517Z,16.29
2018-08-27T07:30:11.656Z,16.45
2018-08-27T07:31:10.642Z,16.44
2018-08-27T07:32:10.705Z,16.40
2018-08-27T07:33:10.767Z,16.55
2018-08-27T07:34:10.830Z,16.59
2018-08-27T07:35:10.894Z,16.67
2018-08-27T07:36:11.009Z,16.55
2018-08-27T07:37:11.018Z,16.54
2018-08-27T07:38:11.083Z,16.55
2018-08-27T07:39:11.150Z,16.47
2018-08-27T07:40:11.207Z,16.41
2018-08-27T07:41:11.270Z,16.37
2018-08-27T07:42:11.334Z,16.47
2018-08-27T07:43:11.396Z,16.55
2018-08-27T07:44:11.458Z,16.70
2018-08-27T07:45:11.522Z,16.73
2018-08-27T07:46:11.587Z,16.75
2018-08-27T07:47:11.648Z,16.81
2018-08-27T07:48:11.710Z,16.67
2018-08-27T07:49:11.773Z,16.77
2018-08-27T07:50:11.837Z,16.73
2018-08-27T07:51:11.954Z,16.73
2018-08-27T07:52:11.962Z,16.80
2018-08-27T07:53:12.054Z,16.67
2018-08-27T07:54:12.116Z,16.67
2018-08-27T07:55:12.152Z,16.78
2018-08-27T07:56:12.218Z,16.84
2018-08-27T07:57:12.277Z,16.91
2018-08-27T07:58:12.340Z,16.98
2018-08-27T07:59:12.403Z,17.02
2018-08-27T08:00:12.466Z,16.91
2018-08-27T08:01:12.529Z,16.95
2018-08-27T08:02:55.055Z,17.00
2018-08-27T08:03:55.097Z,16.81
2018-08-27T08:04:55.159Z,16.90
2018-08-27T08:05:55.223Z,17.00
2018-08-27T08:06:55.286Z,16.95
2018-08-27T08:07:55.349Z,17.02
2018-08-27T08:08:55.413Z,17.06
2018-08-27T08:09:55.476Z,17.05
2018-08-27T08:10:55.538Z,17.03
2018-08-27T08:11:55.854Z,16.99
2018-08-27T08:12:55.977Z,17.03
2018-08-27T08:13:55.729Z,16.84
2018-08-27T08:14:55.794Z,16.77
2018-08-27T08:15:55.856Z,16.82
2018-08-27T08:16:55.919Z,16.85
2018-08-27T08:17:55.985Z,16.80
2018-08-27T08:18:56.045Z,16.82
2018-08-27T08:19:56.109Z,16.72
2018-08-27T08:20:56.171Z,16.69
2018-08-27T08:23:28.826Z,16.73
2018-08-27T08:24:28.889Z,16.75
2018-08-27T08:25:28.950Z,16.77
2018-08-27T08:26:29.057Z,16.90
2018-08-27T08:27:29.078Z,16.84
2018-08-27T08:28:29.154Z,16.84
2018-08-27T08:29:29.205Z,16.82
2018-08-27T08:30:29.267Z,16.77
2018-08-27T08:31:29.338Z,16.92
2018-08-27T08:32:29.393Z,16.99
2018-08-27T08:33:29.462Z,16.91
2018-08-27T08:34:29.520Z,16.75
2018-08-27T08:35:29.586Z,16.82
2018-08-27T08:36:29.647Z,16.84
2018-08-27T08:37:29.711Z,16.91
2018-08-27T08:38:29.773Z,16.91
2018-08-27T08:39:29.836Z,16.98
2018-08-27T08:40:29.907Z,17.02
2018-08-27T08:41:29.963Z,16.96
2018-08-27T08:42:30.026Z,16.91
2018-08-27T08:43:30.089Z,16.91
2018-08-27T08:44:30.153Z,17.10
2018-08-27T08:45:30.250Z,16.96
2018-08-27T08:46:30.278Z,17.12
2018-08-27T08:47:30.409Z,17.14
2018-08-27T08:48:30.406Z,17.12
2018-08-27T08:49:30.470Z,17.06
2018-08-27T08:50:30.532Z,16.99
2018-08-27T08:51:30.596Z,17.10
2018-08-27T08:52:30.711Z,16.91
2018-08-27T08:53:30.783Z,16.91
2018-08-27T08:54:30.788Z,17.00
2018-08-27T08:55:30.849Z,16.80
2018-08-27T08:56:30.916Z,17.09
2018-08-27T08:57:31.462Z,17.27
2018-08-27T08:58:31.043Z,17.27
2018-08-27T08:59:31.103Z,17.45
2018-08-27T09:00:31.167Z,17.28
2018-08-27T09:01:31.281Z,17.27
2018-08-27T09:02:31.294Z,17.32
2018-08-27T09:03:31.735Z,17.33
2018-08-27T09:04:31.423Z,17.28
2018-08-27T09:05:31.501Z,17.51
2018-08-27T09:06:31.549Z,17.36
2018-08-27T09:07:31.611Z,17.53
2018-08-27T09:08:31.906Z,17.46
2018-08-27T09:09:31.744Z,17.65
2018-08-27T09:10:31.803Z,17.49
2018-08-27T09:11:31.883Z,17.65
2018-08-27T09:12:32.181Z,17.65
2018-08-27T09:13:31.997Z,17.49
2018-08-27T09:14:32.060Z,17.36
2018-08-27T09:15:32.124Z,17.47
2018-08-27T09:16:32.189Z,17.53
2018-08-27T09:17:32.324Z,17.62
2018-08-27T09:18:32.316Z,17.66
2018-08-27T09:19:32.379Z,17.76
2018-08-27T09:20:32.444Z,17.81
2018-08-27T09:21:32.508Z,17.91
2018-08-27T09:22:32.571Z,18.11
2018-08-27T09:23:32.640Z,18.09
2018-08-27T09:24:32.700Z,17.77
2018-08-27T09:25:32.764Z,17.76
2018-08-27T09:26:32.827Z,17.92
2018-08-27T09:27:32.894Z,18.05
2018-08-27T09:28:32.961Z,18.10
2018-08-27T09:29:33.020Z,18.10
2018-08-27T09:30:33.085Z,17.96
2018-08-27T09:31:33.151Z,17.86
2018-08-27T09:32:33.632Z,18.05
2018-08-27T09:33:36.310Z,18.25
2018-08-27T09:34:33.353Z,18.25
2018-08-27T09:35:33.410Z,18.29
2018-08-27T09:36:33.471Z,18.21
2018-08-27T09:37:33.590Z,18.49
2018-08-27T09:38:33.599Z,18.46
2018-08-27T09:39:33.664Z,18.11
2018-08-27T09:40:33.731Z,18.17
2018-08-27T09:41:33.868Z,18.29
2018-08-27T09:42:33.859Z,18.35
2018-08-27T09:43:33.923Z,18.49
2018-08-27T09:44:33.988Z,18.49
2018-08-27T09:45:34.054Z,18.78
2018-08-27T09:46:34.118Z,18.21
2018-08-27T09:47:34.183Z,18.28
2018-08-27T09:48:34.248Z,18.34
2018-08-27T09:49:34.313Z,18.49
2018-08-27T09:50:34.377Z,18.65
2018-08-27T09:51:34.443Z,18.72
2018-08-27T09:52:34.537Z,18.72
2018-08-27T09:53:35.265Z,18.72
2018-08-27T09:54:34.700Z,18.84
2018-08-27T09:55:35.269Z,18.86
2018-08-27T09:56:34.773Z,18.51
2018-08-27T09:57:34.840Z,18.44
2018-08-27T09:58:34.906Z,18.46
2018-08-27T09:59:34.964Z,18.56
2018-08-27T10:00:35.030Z,18.76
2018-08-27T10:01:35.096Z,18.78
2018-08-27T10:02:35.163Z,18.66
2018-08-27T10:03:35.229Z,18.57
2018-08-27T10:04:35.290Z,18.68
2018-08-27T10:05:35.357Z,18.56
2018-08-27T10:06:35.420Z,18.51
2018-08-27T10:07:35.485Z,18.56
2018-08-27T10:08:35.550Z,18.62
2018-08-27T10:09:35.619Z,18.28
2018-08-27T10:10:35.680Z,18.23
2018-08-27T10:11:35.746Z,18.13
2018-08-27T10:12:35.811Z,17.89
2018-08-27T10:13:35.875Z,17.94
2018-08-27T10:14:35.940Z,17.94
2018-08-27T10:15:36.006Z,18.14
2018-08-27T10:16:36.070Z,18.31
2018-08-27T10:17:36.137Z,18.13
2018-08-27T10:18:36.199Z,18.11
2018-08-27T10:19:36.263Z,18.13
2018-08-27T10:20:36.331Z,18.19
2018-08-27T10:21:36.399Z,18.01
2018-08-27T10:22:36.533Z,17.89
2018-08-27T10:23:36.521Z,17.89
2018-08-27T10:24:36.587Z,17.96
2018-08-27T10:25:36.661Z,18.16
2018-08-27T10:26:36.880Z,18.20
2018-08-27T10:27:36.780Z,18.26
2018-08-27T10:28:36.844Z,18.11
2018-08-27T10:29:36.909Z,18.26
2018-08-27T10:30:36.973Z,18.35
2018-08-27T10:31:37.038Z,18.44
2018-08-27T10:32:37.103Z,18.34
2018-08-27T10:33:37.168Z,18.19
2018-08-27T10:34:37.232Z,18.16
2018-08-27T10:35:37.297Z,18.31
2018-08-27T10:36:37.362Z,18.29
2018-08-27T10:37:37.429Z,18.29
2018-08-27T10:38:37.489Z,18.42
2018-08-27T10:39:37.555Z,18.46
2018-08-27T10:40:37.620Z,18.31
2018-08-27T10:41:38.034Z,18.29
2018-08-27T10:42:37.751Z,18.28
2018-08-27T10:43:37.913Z,18.29
2018-08-27T10:44:37.878Z,18.35
2018-08-27T10:45:37.943Z,18.57
2018-08-27T10:46:38.007Z,18.74
2018-08-27T10:47:38.072Z,18.83
2018-08-27T10:48:38.137Z,19.09
2018-08-27T10:49:38.206Z,19.15
2018-08-27T10:50:38.267Z,18.93
2018-08-27T10:51:38.954Z,19.10
2018-08-27T10:52:38.407Z,19.20
2018-08-27T10:53:38.460Z,19.12
2018-08-27T10:54:38.526Z,19.15
2018-08-27T10:55:38.591Z,19.27
2018-08-27T10:56:38.656Z,19.20
2018-08-27T10:57:38.765Z,19.09
2018-08-27T10:58:38.789Z,18.84
2018-08-27T10:59:38.851Z,18.91
2018-08-27T11:00:38.917Z,19.16
2018-08-27T11:01:38.982Z,19.24
2018-08-27T11:02:39.045Z,19.39
2018-08-27T11:03:39.111Z,19.49
2018-08-27T11:04:39.177Z,19.58
2018-08-27T11:05:39.244Z,19.43
2018-08-27T11:06:39.634Z,19.30
2018-08-27T11:07:39.371Z,19.38
2018-08-27T11:08:39.689Z,19.31
2018-08-27T11:09:39.528Z,19.25
2018-08-27T11:10:39.585Z,19.24
2018-08-27T11:11:39.638Z,19.15
2018-08-27T11:12:39.699Z,19.01
2018-08-27T11:13:40.392Z,19.10
2018-08-27T11:14:39.828Z,19.15
2018-08-27T11:15:39.898Z,18.99
2018-08-27T11:16:40.600Z,19.01
2018-08-27T11:17:40.025Z,18.83
2018-08-27T11:18:40.090Z,18.94
2018-08-27T11:19:40.232Z,18.99
2018-08-27T11:20:40.399Z,19.17
2018-08-27T11:21:40.840Z,19.21
2018-08-27T11:22:41.221Z,19.28
2018-08-27T11:23:40.415Z,19.05
2018-08-27T11:24:40.479Z,19.16
2018-08-27T11:25:40.545Z,19.27
2018-08-27T11:26:40.825Z,19.35
2018-08-27T11:27:40.675Z,19.46
2018-08-27T11:28:44.687Z,19.57
2018-08-27T11:29:40.806Z,19.58
2018-08-27T11:30:40.874Z,19.49
2018-08-27T11:31:40.936Z,19.42
2018-08-27T11:32:41.004Z,19.47
2018-08-27T11:33:41.066Z,19.43
2018-08-27T11:34:41.131Z,19.58
2018-08-27T11:35:41.196Z,19.75
2018-08-27T11:36:41.262Z,19.83
2018-08-27T11:37:41.327Z,19.79
2018-08-27T11:38:41.413Z,20.04
2018-08-27T11:39:41.459Z,19.87
2018-08-27T11:40:41.526Z,19.70
2018-08-27T11:41:41.638Z,19.47
2018-08-27T11:42:41.655Z,19.42
2018-08-27T11:43:41.724Z,19.53
2018-08-27T11:44:41.787Z,19.35
2018-08-27T11:45:41.856Z,19.58
2018-08-27T11:46:41.917Z,19.68
2018-08-27T11:47:41.984Z,19.55
2018-08-27T11:48:42.055Z,19.57
2018-08-27T11:49:42.115Z,19.47
2018-08-27T11:50:42.318Z,19.46
2018-08-27T11:51:42.274Z,19.55
2018-08-27T11:52:42.312Z,19.65
2018-08-27T11:53:42.378Z,19.78
2018-08-27T11:54:42.444Z,19.76
2018-08-27T11:55:42.512Z,19.76
2018-08-27T11:56:42.574Z,19.60
2018-08-27T11:57:42.639Z,19.55
2018-08-27T11:58:42.807Z,19.60
2018-08-27T11:59:42.770Z,19.67
2018-08-27T12:00:42.834Z,19.65
2018-08-27T12:01:42.901Z,19.78
2018-08-27T12:02:42.968Z,19.75
2018-08-27T12:03:43.034Z,19.65
2018-08-27T12:04:43.100Z,19.92
2018-08-27T12:05:43.164Z,20.02
2018-08-27T12:06:43.228Z,20.05
2018-08-27T12:07:43.294Z,20.02
2018-08-27T12:08:43.401Z,20.00
2018-08-27T12:09:43.426Z,20.15
2018-08-27T12:10:43.491Z,20.10
2018-08-27T12:11:43.557Z,20.15
2018-08-27T12:12:43.623Z,20.16
2018-08-27T12:13:43.689Z,19.97
2018-08-27T12:14:43.754Z,19.94
2018-08-27T12:15:43.820Z,19.98
2018-08-27T12:16:43.890Z,20.19
2018-08-27T12:17:43.954Z,20.25
2018-08-27T12:18:44.022Z,20.37
2018-08-27T12:19:44.083Z,20.51
2018-08-27T12:20:44.149Z,20.40
2018-08-27T12:21:44.219Z,20.31
2018-08-27T12:22:44.280Z,20.46
2018-08-27T12:23:44.365Z,20.42
2018-08-27T12:24:44.412Z,20.40
2018-08-27T12:25:44.496Z,20.25
2018-08-27T12:26:44.550Z,20.41
2018-08-27T12:27:44.615Z,20.60
2018-08-27T12:28:44.676Z,20.76
2018-08-27T12:29:44.741Z,20.96
2018-08-27T12:30:44.840Z,20.97
2018-08-27T12:31:44.872Z,21.12
2018-08-27T12:32:44.965Z,21.31
2018-08-27T12:33:45.005Z,21.11
2018-08-27T12:34:45.072Z,21.30
2018-08-27T12:35:45.138Z,21.26
2018-08-27T12:36:45.202Z,21.16
2018-08-27T12:37:45.304Z,21.13
2018-08-27T12:38:45.334Z,21.45
2018-08-27T12:39:45.401Z,21.61
2018-08-27T12:40:45.698Z,21.70
2018-08-27T12:41:45.535Z,21.61
2018-08-27T12:42:45.599Z,21.48
2018-08-27T12:43:45.674Z,21.55
2018-08-27T12:44:45.736Z,21.82
2018-08-27T12:45:45.802Z,21.71
2018-08-27T12:46:46.385Z,21.48
2018-08-27T12:47:45.934Z,21.48
2018-08-27T12:48:46.003Z,21.31
2018-08-27T12:49:46.648Z,21.21
2018-08-27T12:50:46.671Z,21.24
2018-08-27T12:51:46.204Z,21.24
2018-08-27T12:52:46.283Z,20.97
2018-08-27T12:53:46.341Z,20.93
2018-08-27T12:54:46.848Z,20.93
2018-08-27T12:55:46.470Z,20.87